Time;durP1;ratioP1;P1;durP2;ratioP2;P2;SDS_P1;SDS_P2;PMS_P1;PMS_P2;Temp;Humidity;BMP_temperature;BMP_pressure;BME280_temperature;BME280_humidity;BME280_pressure;Samples;Min_cycle;Max_cycle;Signal;HPM_P1;HPM_P2
2022/06/24 00:01:12;;;;;;;;;;;;;;;-144.47;34.93;52971.28;5068203;28;19912;-68
2022/06/24 00:03:37;;;;;;;;;;;;;;;-144.47;34.98;52983.22;5068530;28;19961;-65
2022/06/24 00:06:07;;;;;;;;;;;;;;;-144.47;35.07;52977.25;5068026;28;20435;-69
2022/06/24 00:08:32;;;;;;;;;;;;;;;-144.47;35.11;52969.31;5054272;28;20308;-70
2022/06/24 00:11:10;;;;;;;;;;;;;;;-144.47;35.16;52967.31;5068330;28;20134;-71
2022/06/24 00:13:39;;;;;;;;;;;;;;;-144.47;35.38;52987.19;5068891;28;19916;-67
2022/06/24 00:16:04;;;;;;;;;;;;;;;-144.47;35.34;52963.34;5060493;28;19927;-70
2022/06/24 00:18:30;;;;;;;;;;;;;;;-144.47;35.52;52987.19;5066967;28;19908;-69
2022/06/24 00:20:55;;;;;;;;;;;;;;;-144.47;35.84;52941.50;5066604;28;19908;-68
2022/06/24 00:23:21;;;;;;;;;;;;;;;-144.47;35.91;52993.13;5067953;28;19927;-71
2022/06/24 00:25:47;;;;;;;;;;;;;;;-144.47;35.96;52981.22;5068128;28;19996;-66
2022/06/24 00:28:13;;;;;;;;;;;;;;;-144.47;36.08;52977.25;5068074;28;19995;-68
2022/06/24 00:30:51;;;;;;;;;;;;;;;-144.47;36.33;52967.31;5067851;28;19912;-67
2022/06/24 00:33:19;;;;;;;;;;;;;;;-144.47;36.33;52989.16;5067985;28;20245;-68
2022/06/24 00:35:47;;;;;;;;;;;;;;;-144.47;36.69;52979.22;5067820;28;19908;-69
2022/06/24 00:38:24;;;;;;;;;;;;;;;-144.47;36.73;52973.28;5067920;28;19908;-68
2022/06/24 00:40:52;;;;;;;;;;;;;;;-144.47;36.95;52973.28;5067691;28;19954;-66
2022/06/24 00:43:29;;;;;;;;;;;;;;;-144.47;37.06;52967.31;5068037;28;19908;-69
2022/06/24 00:46:03;;;;;;;;;;;;;;;-144.47;37.28;52999.09;5067643;28;19908;-67
2022/06/24 00:48:29;;;;;;;;;;;;;;;-144.47;37.37;52981.22;5067686;28;20397;-69
2022/06/24 00:50:54;;;;;;;;;;;;;;;-144.47;37.51;53007.03;5068101;28;19918;-68
2022/06/24 00:53:20;;;;;;;;;;;;;;;-144.47;37.57;52983.22;5067836;28;20003;-69
2022/06/24 00:55:46;;;;;;;;;;;;;;;-144.47;37.71;52989.16;5067826;28;19991;-66
2022/06/24 00:58:15;;;;;;;;;;;;;;;-144.47;37.63;52977.25;5068086;28;19912;-68
2022/06/24 01:00:45;;;;;;;;;;;;;;;-144.47;37.50;53007.03;5067846;28;20011;-69
2022/06/24 01:03:11;;;;;;;;;;;;;;;-144.47;37.47;53007.03;5067664;28;20007;-69
2022/06/24 01:05:36;;;;;;;;;;;;;;;-144.47;37.47;52979.22;5063938;28;20053;-67
2022/06/24 01:08:06;;;;;;;;;;;;;;;-144.47;37.20;52983.22;5067013;28;19912;-69
2022/06/24 01:10:32;;;;;;;;;;;;;;;-144.47;37.29;52991.16;5068344;28;19913;-68
2022/06/24 01:12:57;;;;;;;;;;;;;;;-144.47;37.14;53024.91;5069563;28;20355;-68
2022/06/24 01:15:23;;;;;;;;;;;;;;;-144.47;37.21;52969.31;5071319;28;19913;-65
2022/06/24 01:17:48;;;;;;;;;;;;;;;-144.47;37.27;52971.28;5070343;28;19995;-66
2022/06/24 01:20:13;;;;;;;;;;;;;;;-144.47;37.39;53024.91;5070971;28;19940;-67
2022/06/24 01:22:39;;;;;;;;;;;;;;;-144.47;37.58;52963.34;5070616;28;19912;-68
2022/06/24 01:25:05;;;;;;;;;;;;;;;-144.47;37.48;52997.09;5070570;28;20345;-67
2022/06/24 01:27:30;;;;;;;;;;;;;;;-144.47;37.87;52979.22;5070931;28;19912;-69
2022/06/24 01:29:55;;;;;;;;;;;;;;;-144.47;37.84;52973.28;5072961;28;19908;-65
2022/06/24 01:32:20;;;;;;;;;;;;;;;-144.47;37.86;52991.16;5072072;28;20015;-67
2022/06/24 01:34:46;;;;;;;;;;;;;;;-144.47;37.92;52987.19;5071732;28;19959;-66
2022/06/24 01:37:11;;;;;;;;;;;;;;;-144.47;37.86;52975.25;5070107;28;19912;-67
2022/06/24 01:39:37;;;;;;;;;;;;;;;-144.47;38.03;53005.06;5071727;28;19950;-67
2022/06/24 01:42:02;;;;;;;;;;;;;;;-144.47;38.15;53016.97;5069714;28;20067;-64
2022/06/24 01:44:27;;;;;;;;;;;;;;;-144.47;38.17;53028.88;5069994;28;20022;-66
2022/06/24 01:46:53;;;;;;;;;;;;;;;-144.47;38.09;52967.31;5070304;28;19974;-64
2022/06/24 01:49:18;;;;;;;;;;;;;;;-144.47;38.11;52991.16;5069166;28;19947;-67
2022/06/24 01:51:44;;;;;;;;;;;;;;;-144.47;38.25;52943.47;5069651;28;19908;-66
2022/06/24 01:54:10;;;;;;;;;;;;;;;-144.47;38.15;52991.16;5065364;28;19969;-67
2022/06/24 01:56:35;;;;;;;;;;;;;;;-144.47;38.42;52979.22;5070608;28;19916;-66
2022/06/24 01:59:00;;;;;;;;;;;;;;;-144.47;38.38;53005.06;5070349;28;19912;-65
2022/06/24 02:01:26;;;;;;;;;;;;;;;-144.47;38.47;52983.22;5070739;28;20420;-67
2022/06/24 02:03:51;;;;;;;;;;;;;;;-144.47;38.67;53005.06;5070703;28;19924;-63
2022/06/24 02:06:17;;;;;;;;;;;;;;;-144.47;38.80;53016.97;5070617;28;20339;-67
2022/06/24 02:08:43;;;;;;;;;;;;;;;-144.47;38.94;53038.81;5070419;28;19926;-68
2022/06/24 02:13:55;;;;;;;;;;;;;;;-144.47;39.10;53022.94;5069797;28;19983;-67
2022/06/24 02:16:20;;;;;;;;;;;;;;;-144.47;39.09;53009.03;5068336;28;19908;-69
2022/06/24 02:18:46;;;;;;;;;;;;;;;-144.47;39.09;52989.16;5070172;28;19908;-66
2022/06/24 02:21:11;;;;;;;;;;;;;;;-144.47;39.27;53018.97;5069987;28;19935;-68
2022/06/24 02:23:37;;;;;;;;;;;;;;;-144.47;39.18;52993.13;5069883;28;19904;-67
2022/06/24 02:26:02;;;;;;;;;;;;;;;-144.47;39.27;52987.19;5070033;28;19931;-68
2022/06/24 02:28:27;;;;;;;;;;;;;;;-144.47;38.92;52983.22;5068801;28;19916;-68
2022/06/24 02:30:54;;;;;;;;;;;;;;;-144.47;38.82;53024.91;5070690;28;19916;-65
2022/06/24 02:33:19;;;;;;;;;;;;;;;-144.47;39.00;53024.91;5069820;28;20036;-66
2022/06/24 02:35:45;;;;;;;;;;;;;;;-144.47;39.02;52965.34;5069921;28;19944;-68
2022/06/24 02:38:10;;;;;;;;;;;;;;;-144.47;38.90;52979.22;5069794;28;19909;-69
2022/06/24 02:40:48;;;;;;;;;;;;;;;-144.47;38.79;53032.88;5070413;28;19918;-65
2022/06/24 02:43:16;;;;;;;;;;;;;;;-144.47;38.99;53018.97;5068914;28;19947;-68
2022/06/24 02:45:52;;;;;;;;;;;;;;;-144.47;39.10;53018.97;5068938;28;20438;-66
2022/06/24 02:48:18;;;;;;;;;;;;;;;-144.47;38.98;53020.94;5067281;28;20322;-67
2022/06/24 02:50:44;;;;;;;;;;;;;;;-144.47;39.14;53007.03;5069696;28;19915;-66
2022/06/24 02:53:10;;;;;;;;;;;;;;;-144.47;39.07;53024.91;5070044;28;19908;-67
2022/06/24 02:55:36;;;;;;;;;;;;;;;-144.47;39.01;52987.19;5070254;28;19931;-64
2022/06/24 02:58:01;;;;;;;;;;;;;;;-144.47;39.24;53032.88;5068685;28;20070;-69
2022/06/24 03:00:26;;;;;;;;;;;;;;;-144.47;39.24;53034.84;5069430;28;19908;-65
2022/06/24 03:02:51;;;;;;;;;;;;;;;-144.47;39.39;52997.09;5069307;28;20340;-68
2022/06/24 03:05:17;;;;;;;;;;;;;;;-144.47;39.39;52987.19;5069371;28;19974;-66
2022/06/24 03:07:42;;;;;;;;;;;;;;;-144.47;39.52;53050.75;5083862;28;19912;-69
2022/06/24 03:10:07;;;;;;;;;;;;;;;-144.47;39.62;52989.16;5069102;28;19913;-66
2022/06/24 03:12:33;;;;;;;;;;;;;;;-144.47;39.66;52977.25;5069333;28;19912;-68
2022/06/24 03:14:58;;;;;;;;;;;;;;;-144.47;39.64;52993.13;5069480;28;19916;-65
2022/06/24 03:17:23;;;;;;;;;;;;;;;-144.47;39.76;53007.03;5068456;28;19934;-66
2022/06/24 03:19:48;;;;;;;;;;;;;;;-144.47;39.76;53015.00;5068295;28;19912;-67
2022/06/24 03:22:14;;;;;;;;;;;;;;;-144.47;39.63;52951.44;5069251;28;20323;-64
2022/06/24 03:24:40;;;;;;;;;;;;;;;-144.47;39.71;52995.13;5068953;28;19912;-66
2022/06/24 03:27:05;;;;;;;;;;;;;;;-144.47;39.69;52989.16;5068057;28;19956;-68
2022/06/24 03:29:31;;;;;;;;;;;;;;;-144.47;39.61;53022.94;5069189;28;19908;-69
2022/06/24 03:31:56;;;;;;;;;;;;;;;-144.47;39.67;53013.00;5065314;28;19909;-68
2022/06/24 03:34:21;;;;;;;;;;;;;;;-144.47;39.71;53011.00;5066045;28;19951;-65
2022/06/24 03:36:46;;;;;;;;;;;;;;;-144.47;39.69;53016.97;5067943;28;20479;-65
2022/06/24 03:39:12;;;;;;;;;;;;;;;-144.47;39.74;53003.06;5068474;28;19908;-68
2022/06/24 03:41:37;;;;;;;;;;;;;;;-144.47;39.65;53030.88;5067698;28;19983;-66
2022/06/24 03:44:03;;;;;;;;;;;;;;;-144.47;39.64;53005.06;5067505;28;19915;-68
2022/06/24 03:46:28;;;;;;;;;;;;;;;-144.47;39.70;52977.25;5068465;28;19916;-68
2022/06/24 03:48:53;;;;;;;;;;;;;;;-144.47;39.78;52979.22;5068653;28;20341;-65
2022/06/24 03:51:19;;;;;;;;;;;;;;;-144.47;39.78;52989.16;5066897;28;19912;-67
2022/06/24 03:53:44;;;;;;;;;;;;;;;-144.47;39.84;53011.00;5068319;28;19912;-66
2022/06/24 03:56:10;;;;;;;;;;;;;;;-144.47;40.04;53018.97;5068793;28;19999;-65
2022/06/24 03:58:35;;;;;;;;;;;;;;;-144.47;39.88;53042.78;5068200;28;19954;-64
2022/06/24 04:01:01;;;;;;;;;;;;;;;-144.47;39.94;52995.13;5068009;28;19912;-67
2022/06/24 04:03:26;;;;;;;;;;;;;;;-144.47;39.86;53003.06;5067908;28;19908;-66
2022/06/24 04:05:52;;;;;;;;;;;;;;;-144.47;40.03;52991.16;5066180;28;19912;-66
2022/06/24 04:08:17;;;;;;;;;;;;;;;-144.47;40.16;53005.06;5066267;28;19908;-67
2022/06/24 04:10:42;;;;;;;;;;;;;;;-144.47;39.91;53007.03;5066197;28;20253;-66
2022/06/24 04:13:07;;;;;;;;;;;;;;;-144.47;39.86;53009.03;5068176;28;19973;-67
2022/06/24 04:15:33;;;;;;;;;;;;;;;-144.47;39.79;53003.06;5063979;28;19909;-67
2022/06/24 04:17:58;;;;;;;;;;;;;;;-144.47;39.89;53007.03;5057706;28;19987;-64
2022/06/24 04:20:23;;;;;;;;;;;;;;;-144.47;39.91;53026.91;5068036;28;20013;-67
2022/06/24 04:22:48;;;;;;;;;;;;;;;-144.47;39.75;52985.19;5067916;28;19998;-67
2022/06/24 04:25:14;;;;;;;;;;;;;;;-144.47;39.81;52995.13;5067550;28;19931;-65
2022/06/24 04:27:39;;;;;;;;;;;;;;;-144.47;39.92;53007.03;5068219;28;19908;-67
2022/06/24 04:30:06;;;;;;;;;;;;;;;-144.47;39.79;53007.03;5067558;28;19908;-65
2022/06/24 04:32:32;;;;;;;;;;;;;;;-144.47;39.77;52987.19;5067829;28;19909;-65
2022/06/24 04:34:57;;;;;;;;;;;;;;;-144.47;39.70;53003.06;5066983;28;19912;-67
2022/06/24 04:37:22;;;;;;;;;;;;;;;-144.47;39.94;52999.09;5067034;28;19965;-64
2022/06/24 04:39:47;;;;;;;;;;;;;;;-144.47;39.74;53015.00;5067580;28;19908;-67
2022/06/24 04:42:13;;;;;;;;;;;;;;;-144.47;39.64;53026.91;5067476;28;19908;-65
2022/06/24 04:44:38;;;;;;;;;;;;;;;-144.47;39.89;52995.13;5065763;28;19927;-66
2022/06/24 04:47:04;;;;;;;;;;;;;;;-144.47;39.73;52995.13;5066777;28;19914;-65
2022/06/24 04:49:29;;;;;;;;;;;;;;;-144.47;39.79;53015.00;5066646;28;19965;-66
2022/06/24 04:51:54;;;;;;;;;;;;;;;-144.47;39.62;52997.09;5066878;28;20296;-67
2022/06/24 04:54:20;;;;;;;;;;;;;;;-144.47;39.64;52967.31;5067273;28;19920;-65
2022/06/24 04:56:45;;;;;;;;;;;;;;;-144.47;39.61;52983.22;5066987;28;19920;-68
2022/06/24 04:59:10;;;;;;;;;;;;;;;-144.47;39.56;53009.03;5066336;28;19924;-65
2022/06/24 05:01:36;;;;;;;;;;;;;;;-144.47;39.55;52991.16;5067632;28;20384;-68
2022/06/24 05:04:01;;;;;;;;;;;;;;;-144.47;39.44;52977.25;5068064;28;19920;-65
2022/06/24 05:06:26;;;;;;;;;;;;;;;-144.47;39.53;52995.13;5071791;28;20017;-66
2022/06/24 05:08:52;;;;;;;;;;;;;;;-144.47;39.29;53018.97;5067321;28;20114;-67
2022/06/24 05:11:17;;;;;;;;;;;;;;;-144.47;39.37;52971.28;5067278;28;20360;-68
2022/06/24 05:13:42;;;;;;;;;;;;;;;-144.47;39.29;52995.13;5066971;28;20297;-68
2022/06/24 05:16:07;;;;;;;;;;;;;;;-144.47;39.17;52965.34;5066599;28;21376;-67
2022/06/24 05:18:32;;;;;;;;;;;;;;;-144.47;39.17;52997.09;5067113;28;20289;-67
2022/06/24 05:20:58;;;;;;;;;;;;;;;-144.47;39.03;52999.09;5067403;28;19961;-66
2022/06/24 05:23:23;;;;;;;;;;;;;;;-144.47;39.00;52965.34;5067582;28;20289;-65
2022/06/24 05:25:48;;;;;;;;;;;;;;;-144.47;38.96;52967.31;5067049;28;19919;-65
2022/06/24 05:28:13;;;;;;;;;;;;;;;-144.47;38.64;53018.97;5072548;28;19919;-66
2022/06/24 05:30:39;;;;;;;;;;;;;;;-144.47;38.64;53003.06;5070896;28;19912;-66
2022/06/24 05:33:04;;;;;;;;;;;;;;;-144.47;38.52;52997.09;5066113;28;19908;-66
2022/06/24 05:35:29;;;;;;;;;;;;;;;-144.47;38.25;52969.31;5067380;28;19916;-66
2022/06/24 05:37:54;;;;;;;;;;;;;;;-144.47;38.34;52983.22;5067630;28;19915;-68
2022/06/24 05:40:20;;;;;;;;;;;;;;;-144.47;38.20;52939.50;5070095;28;19973;-68
2022/06/24 05:42:45;;;;;;;;;;;;;;;-144.47;38.23;52981.22;5065144;28;19962;-69
2022/06/24 05:45:10;;;;;;;;;;;;;;;-144.47;38.33;52979.22;5065366;28;20369;-66
2022/06/24 05:47:36;;;;;;;;;;;;;;;-144.47;38.24;52991.16;5079618;28;19909;-65
2022/06/24 05:50:01;;;;;;;;;;;;;;;-144.47;38.03;52949.44;5067828;28;19924;-66
2022/06/24 05:55:10;;;;;;;;;;;;;;;-144.47;38.17;52997.09;5065664;28;19923;-65
2022/06/24 05:57:35;;;;;;;;;;;;;;;-144.47;38.12;52981.22;5064835;28;19923;-69
2022/06/24 06:00:01;;;;;;;;;;;;;;;-144.47;37.96;52971.28;5071736;28;19920;-68
2022/06/24 06:02:26;;;;;;;;;;;;;;;-144.47;38.02;52951.44;5071491;28;19935;-69
2022/06/24 06:04:51;;;;;;;;;;;;;;;-144.47;38.02;52975.25;5069286;28;20030;-69
2022/06/24 06:07:16;;;;;;;;;;;;;;;-144.47;37.96;52991.16;5067768;28;19916;-69
2022/06/24 06:09:41;;;;;;;;;;;;;;;-144.47;37.87;52935.53;5072599;28;20286;-68
2022/06/24 06:12:07;;;;;;;;;;;;;;;-144.47;37.95;52957.38;5070054;28;19920;-68
2022/06/24 06:14:32;;;;;;;;;;;;;;;-144.47;37.96;52979.22;5069023;28;19912;-68
2022/06/24 06:16:57;;;;;;;;;;;;;;;-144.47;37.79;52975.25;5071317;28;20380;-69
2022/06/24 06:19:23;;;;;;;;;;;;;;;-144.47;38.03;52987.19;5068168;28;20387;-66
2022/06/24 06:21:48;;;;;;;;;;;;;;;-144.47;38.25;52937.53;5068773;28;19955;-66
2022/06/24 06:24:13;;;;;;;;;;;;;;;-144.47;37.97;52969.31;5069578;28;19954;-66
2022/06/24 06:26:38;;;;;;;;;;;;;;;-144.47;38.04;52975.25;5068663;28;20010;-66
2022/06/24 06:29:04;;;;;;;;;;;;;;;-144.47;37.87;52963.34;5069110;28;19939;-68
2022/06/24 06:31:30;;;;;;;;;;;;;;;-144.47;37.72;52971.28;5069305;28;19988;-66
2022/06/24 06:33:55;;;;;;;;;;;;;;;-144.47;37.42;52983.22;5070115;28;19939;-69
2022/06/24 06:36:21;;;;;;;;;;;;;;;-144.47;37.35;52975.25;5076018;28;20268;-67
2022/06/24 06:38:46;;;;;;;;;;;;;;;-144.47;37.45;52971.28;5068588;28;20252;-68
2022/06/24 06:41:12;;;;;;;;;;;;;;;-144.47;37.19;52939.50;5072584;28;19916;-66
2022/06/24 06:43:38;;;;;;;;;;;;;;;-144.47;37.47;52991.16;5073300;28;19969;-67
2022/06/24 06:46:07;;;;;;;;;;;;;;;-144.47;37.25;52967.31;5069258;28;19918;-68
2022/06/24 06:48:32;;;;;;;;;;;;;;;-144.47;36.79;52977.25;5066143;28;19943;-66
2022/06/24 06:50:58;;;;;;;;;;;;;;;-144.47;36.86;52951.44;5062416;28;19924;-65
2022/06/24 06:53:26;;;;;;;;;;;;;;;-144.47;36.54;52955.41;5062265;28;19916;-67
2022/06/24 06:55:52;;;;;;;;;;;;;;;-144.47;36.53;52955.41;5061705;28;19916;-67
2022/06/24 06:58:21;;;;;;;;;;;;;;;-144.47;36.40;52963.34;5060335;28;19912;-65
2022/06/24 07:00:47;;;;;;;;;;;;;;;-144.47;36.11;52931.56;5061176;28;19908;-65
2022/06/24 07:03:12;;;;;;;;;;;;;;;-144.47;35.70;52943.47;5065217;28;19916;-68
2022/06/24 07:05:37;;;;;;;;;;;;;;;-144.47;35.86;52911.69;5068691;28;19912;-65
2022/06/24 07:08:03;;;;;;;;;;;;;;;-144.47;35.93;52959.38;5069601;28;19956;-67
2022/06/24 07:10:28;;;;;;;;;;;;;;;-144.47;35.75;52943.47;5068665;28;20284;-64
2022/06/24 07:12:53;;;;;;;;;;;;;;;-144.47;35.54;52949.44;5068549;28;20361;-67
2022/06/24 07:15:19;;;;;;;;;;;;;;;-144.47;35.31;52943.47;5059326;28;20194;-66
2022/06/24 07:17:45;;;;;;;;;;;;;;;-144.47;35.26;52949.44;5060138;28;19962;-68
2022/06/24 07:20:10;;;;;;;;;;;;;;;-144.47;35.04;52941.50;5064032;28;19921;-66
2022/06/24 07:22:35;;;;;;;;;;;;;;;-144.47;34.85;52955.41;5065163;28;19994;-68
2022/06/24 07:25:01;;;;;;;;;;;;;;;-144.47;34.55;52937.53;5068811;28;19919;-69
2022/06/24 07:27:26;;;;;;;;;;;;;;;-144.47;34.35;52937.53;5070735;28;19912;-68
2022/06/24 07:29:51;;;;;;;;;;;;;;;-144.47;33.46;52955.41;5072116;28;19960;-66
2022/06/24 07:32:16;;;;;;;;;;;;;;;-144.47;32.45;52949.44;5067108;28;19908;-65
2022/06/24 07:34:42;;;;;;;;;;;;;;;-144.47;31.31;52927.59;5068240;28;19921;-67
2022/06/24 07:37:07;;;;;;;;;;;;;;;-144.47;30.57;52915.69;5066668;28;19912;-65
2022/06/24 07:39:32;;;;;;;;;;;;;;;-144.47;30.00;52911.69;5068094;28;19916;-68
2022/06/24 07:41:58;;;;;;;;;;;;;;;-144.47;29.92;52895.81;5067620;28;19919;-67
2022/06/24 07:44:23;;;;;;;;;;;;;;;-144.47;30.33;52941.50;5065860;28;20281;-67
2022/06/24 07:46:49;;;;;;;;;;;;;;;-144.47;30.31;52917.66;5067929;28;19916;-67
2022/06/24 07:49:15;;;;;;;;;;;;;;;-144.47;29.42;52917.66;5066374;28;19924;-69
2022/06/24 07:51:40;;;;;;;;;;;;;;;-144.47;29.49;52929.59;5067881;28;19999;-69
2022/06/24 07:54:07;;;;;;;;;;;;;;;-144.47;29.28;52925.59;5066487;28;19924;-66
2022/06/24 07:59:17;;;;;;;;;;;;;;;-144.47;29.36;52891.84;5067023;28;19931;-67
2022/06/24 08:01:42;;;;;;;;;;;;;;;-144.47;29.79;52921.63;5067672;28;19917;-68
2022/06/24 08:04:07;;;;;;;;;;;;;;;-144.47;30.02;52885.88;5067086;28;19934;-66
2022/06/24 08:06:37;;;;;;;;;;;;;;;-144.47;30.27;52909.72;5065568;28;19912;-69
2022/06/24 08:09:02;;;;;;;;;;;;;;;-144.47;30.21;52901.78;5063551;28;19923;-66
2022/06/24 08:11:28;;;;;;;;;;;;;;;-144.47;30.34;52921.63;5067925;28;19912;-65
2022/06/24 08:13:53;;;;;;;;;;;;;;;-144.47;30.49;52921.63;5068733;28;19943;-67
2022/06/24 08:16:19;;;;;;;;;;;;;;;-144.47;30.12;52903.75;5060284;28;19912;-66
2022/06/24 08:18:44;;;;;;;;;;;;;;;-144.47;30.29;52913.69;5057596;28;19912;-67
2022/06/24 08:21:09;;;;;;;;;;;;;;;-144.47;30.14;52887.88;5059294;28;19918;-67
2022/06/24 08:23:34;;;;;;;;;;;;;;;-144.47;30.16;52899.78;5058735;28;19997;-68
2022/06/24 08:26:00;;;;;;;;;;;;;;;-144.47;30.32;52909.72;5059438;28;20060;-67
2022/06/24 08:28:25;;;;;;;;;;;;;;;-144.47;30.04;52889.84;5057468;28;20001;-67
2022/06/24 08:30:50;;;;;;;;;;;;;;;-144.47;30.04;52891.84;5058128;28;20579;-66
2022/06/24 08:33:15;;;;;;;;;;;;;;;-144.47;30.04;52931.56;5059903;28;19926;-67
2022/06/24 08:35:41;;;;;;;;;;;;;;;-144.47;29.84;52891.84;5058490;28;20414;-67
2022/06/24 08:38:06;;;;;;;;;;;;;;;-144.47;29.69;52881.91;5062028;28;19923;-66
2022/06/24 08:40:31;;;;;;;;;;;;;;;-144.47;29.58;52883.91;5059605;28;20521;-67
2022/06/24 08:42:57;;;;;;;;;;;;;;;-144.47;29.02;52893.81;5056716;28;19971;-65
2022/06/24 08:45:23;;;;;;;;;;;;;;;-144.47;29.33;52895.81;5057336;28;19927;-67
2022/06/24 08:47:49;;;;;;;;;;;;;;;-144.47;29.36;52913.69;5050579;28;19920;-68
2022/06/24 08:50:14;;;;;;;;;;;;;;;-144.47;29.22;52856.09;5057953;28;20743;-66
2022/06/24 08:52:42;;;;;;;;;;;;;;;-144.47;29.18;52883.91;5059941;28;19913;-68
2022/06/24 08:55:07;;;;;;;;;;;;;;;-144.47;29.29;52891.84;5057201;28;19916;-65
2022/06/24 08:57:32;;;;;;;;;;;;;;;-144.47;29.39;52907.72;5059340;28;19912;-68
2022/06/24 08:59:58;;;;;;;;;;;;;;;-144.47;29.19;52871.97;5061401;28;19967;-66
2022/06/24 09:02:23;;;;;;;;;;;;;;;-144.47;29.16;52866.03;5056527;28;20073;-67
2022/06/24 09:04:48;;;;;;;;;;;;;;;-144.47;29.10;52854.09;5056414;28;19994;-67
2022/06/24 09:07:31;;;;;;;;;;;;;;;-144.47;29.15;52856.09;5054822;28;20378;-67
2022/06/24 09:09:58;;;;;;;;;;;;;;;-144.47;29.20;52873.97;5056721;28;20003;-67
2022/06/24 09:12:23;;;;;;;;;;;;;;;-144.47;29.22;52864.03;5068425;28;19981;-68
2022/06/24 09:14:48;;;;;;;;;;;;;;;-144.47;29.15;52917.66;5058821;28;19920;-66
2022/06/24 09:17:13;;;;;;;;;;;;;;;-144.47;29.20;52889.84;5056869;28;19916;-67
2022/06/24 09:19:39;;;;;;;;;;;;;;;-144.47;29.16;52885.88;5060662;28;19912;-66
2022/06/24 09:22:05;;;;;;;;;;;;;;;-144.47;29.06;52887.88;5063578;28;19991;-70
2022/06/24 09:24:42;;;;;;;;;;;;;;;-144.47;29.02;52897.81;5065884;28;19913;-68
2022/06/24 09:27:08;;;;;;;;;;;;;;;-144.47;28.78;52895.81;5067127;28;19956;-69
2022/06/24 09:29:33;;;;;;;;;;;;;;;-144.47;28.90;52846.16;5066564;28;20381;-69
2022/06/24 09:32:03;;;;;;;;;;;;;;;-144.47;28.73;52824.31;5063061;28;19912;-68
2022/06/24 09:34:28;;;;;;;;;;;;;;;-144.47;28.77;52846.16;5062731;28;20527;-69
2022/06/24 09:36:53;;;;;;;;;;;;;;;-144.47;28.74;52889.84;5070288;28;19912;-67
2022/06/24 09:39:18;;;;;;;;;;;;;;;-144.47;28.73;52870.00;5069221;28;19912;-68
2022/06/24 09:41:43;;;;;;;;;;;;;;;-144.47;28.85;52868.00;5069345;28;19916;-67
2022/06/24 09:44:09;;;;;;;;;;;;;;;-144.47;28.73;52883.91;5070165;28;20024;-66
2022/06/24 09:46:35;;;;;;;;;;;;;;;-144.47;28.80;52868.00;5070521;28;20035;-69
2022/06/24 09:49:04;;;;;;;;;;;;;;;-144.47;28.88;52860.06;5066472;28;20519;-71
2022/06/24 09:51:30;;;;;;;;;;;;;;;-144.47;28.65;52860.06;5066606;28;19912;-68
2022/06/24 09:53:55;;;;;;;;;;;;;;;-144.47;28.61;52856.09;5069942;28;19990;-69
2022/06/24 09:56:21;;;;;;;;;;;;;;;-144.47;28.24;52854.09;5070128;28;19915;-68
2022/06/24 10:01:34;;;;;;;;;;;;;;;-144.47;28.09;52887.88;5069741;28;20260;-68
2022/06/24 10:04:00;;;;;;;;;;;;;;;-144.47;28.03;52858.06;5067876;28;19923;-69
2022/06/24 10:06:27;;;;;;;;;;;;;;;-144.47;30.23;52846.16;5069497;28;20014;-68
2022/06/24 10:08:53;;;;;;;;;;;;;;;-144.47;33.09;52881.91;5070281;28;19985;-66
2022/06/24 10:11:18;;;;;;;;;;;;;;;-144.47;34.23;52871.97;5068906;28;20170;-69
2022/06/24 10:13:44;;;;;;;;;;;;;;;-144.47;35.78;52919.66;5067746;28;19916;-68
2022/06/24 10:16:10;;;;;;;;;;;;;;;-144.47;37.22;52927.59;5063711;28;19955;-69
2022/06/24 10:18:55;;;;;;;;;;;;;;;-144.47;37.88;52911.69;5069294;28;19943;-68
2022/06/24 10:21:20;;;;;;;;;;;;;;;-144.47;39.40;52923.63;5068860;28;19924;-69
2022/06/24 10:23:49;;;;;;;;;;;;;;;-144.47;39.72;52941.50;5070228;28;19912;-70
2022/06/24 10:26:14;;;;;;;;;;;;;;;-144.47;40.08;52929.59;5070319;28;20664;-69
2022/06/24 10:28:58;;;;;;;;;;;;;;;-144.47;40.44;52937.53;5070255;28;19909;-67
2022/06/24 10:31:52;;;;;;;;;;;;;;;-144.47;40.98;52957.38;5070315;28;19908;-70
2022/06/24 10:34:27;;;;;;;;;;;;;;;-144.47;41.43;52959.38;5062754;28;19939;-70
2022/06/24 10:36:52;;;;;;;;;;;;;;;-144.47;41.40;52947.47;5070107;28;20399;-67
2022/06/24 10:39:19;;;;;;;;;;;;;;;-144.47;41.45;52959.38;5066867;28;19916;-68
2022/06/24 10:41:44;;;;;;;;;;;;;;;-144.47;41.99;52969.31;5066110;28;19921;-66
2022/06/24 10:44:22;;;;;;;;;;;;;;;-144.47;41.69;52955.41;5066729;28;19966;-67
2022/06/24 10:47:06;;;;;;;;;;;;;;;-144.47;41.42;52951.44;5060975;28;19912;-69
2022/06/24 10:49:49;;;;;;;;;;;;;;;-144.47;41.65;53011.00;5057377;28;20011;-68
2022/06/24 10:52:32;;;;;;;;;;;;;;;-144.47;42.06;52979.22;5067661;28;19931;-66
2022/06/24 10:55:20;;;;;;;;;;;;;;;-144.47;42.11;52947.47;5068277;28;19927;-68
2022/06/24 10:57:45;;;;;;;;;;;;;;;-144.47;42.59;53009.03;5063845;28;19954;-68
2022/06/24 11:00:11;;;;;;;;;;;;;;;-144.47;42.51;52943.47;5068474;28;20008;-69
2022/06/24 11:02:36;;;;;;;;;;;;;;;-144.47;41.95;52965.34;5068744;28;19912;-65
2022/06/24 11:05:01;;;;;;;;;;;;;;;-144.47;42.42;52989.16;5068180;28;20065;-67
2022/06/24 11:07:27;;;;;;;;;;;;;;;-144.47;42.42;52983.22;5069282;28;19998;-69
2022/06/24 11:09:52;;;;;;;;;;;;;;;-144.47;43.09;52961.34;5067235;28;20058;-66
2022/06/24 11:12:28;;;;;;;;;;;;;;;-144.47;42.30;52971.28;5068432;28;19912;-67
2022/06/24 11:14:53;;;;;;;;;;;;;;;-144.47;42.91;52983.22;5068145;28;20000;-67
2022/06/24 11:17:25;;;;;;;;;;;;;;;-144.47;42.25;52957.38;5065713;28;20376;-69
2022/06/24 11:19:51;;;;;;;;;;;;;;;-144.47;41.97;52995.13;5067920;28;20369;-67
2022/06/24 11:22:16;;;;;;;;;;;;;;;-144.47;42.52;53003.06;5067109;28;20011;-68
2022/06/24 11:24:44;;;;;;;;;;;;;;;-144.47;42.01;52947.47;5067951;28;20058;-69
2022/06/24 11:27:09;;;;;;;;;;;;;;;-144.47;42.18;52951.44;5065894;28;19912;-66
2022/06/24 11:29:53;;;;;;;;;;;;;;;-144.47;41.85;52959.38;5068680;28;19976;-68
2022/06/24 11:32:19;;;;;;;;;;;;;;;-144.47;41.61;52973.28;5067139;28;19908;-66
2022/06/24 11:34:44;;;;;;;;;;;;;;;-144.47;41.75;52985.19;5067814;28;19913;-67
2022/06/24 11:37:10;;;;;;;;;;;;;;;-144.47;41.90;52963.34;5068406;28;19912;-67
2022/06/24 11:39:35;;;;;;;;;;;;;;;-144.47;42.34;52997.09;5068216;28;19909;-68
2022/06/24 11:42:00;;;;;;;;;;;;;;;-144.47;43.39;52971.28;5062369;28;19999;-68
2022/06/24 11:44:35;;;;;;;;;;;;;;;-144.47;44.21;52963.34;5061628;28;20514;-68
2022/06/24 11:47:01;;;;;;;;;;;;;;;-144.47;44.43;52977.25;5065884;28;20443;-67
2022/06/24 11:49:27;;;;;;;;;;;;;;;-144.47;44.97;52997.09;5067564;28;19947;-66
2022/06/24 11:51:52;;;;;;;;;;;;;;;-144.47;45.11;52987.19;5063504;28;19945;-69
2022/06/24 11:54:18;;;;;;;;;;;;;;;-144.47;45.52;52973.28;5067347;28;19913;-68
2022/06/24 11:56:44;;;;;;;;;;;;;;;-144.47;45.39;53009.03;5059991;28;19916;-69
2022/06/24 11:59:09;;;;;;;;;;;;;;;-144.47;45.59;52939.50;5063968;28;20321;-68
2022/06/24 12:01:35;;;;;;;;;;;;;;;-144.47;46.21;53003.06;5060027;28;20079;-68
2022/06/24 12:04:02;;;;;;;;;;;;;;;-144.47;46.50;52985.19;5063908;28;19912;-69
2022/06/24 12:06:27;;;;;;;;;;;;;;;-144.47;47.87;53024.91;5061835;28;19969;-66
2022/06/24 12:08:54;;;;;;;;;;;;;;;-144.47;49.56;53026.91;5064309;28;20014;-68
2022/06/24 12:11:20;;;;;;;;;;;;;;;-144.47;50.78;53026.91;5062802;28;20506;-68
2022/06/24 12:13:58;;;;;;;;;;;;;;;-144.47;51.55;53016.97;5062294;28;20036;-67
2022/06/24 12:16:25;;;;;;;;;;;;;;;-144.47;52.32;53030.88;5095128;22;19919;-66
2022/06/24 12:18:50;;;;;;;;;;;;;;;-144.47;53.00;53042.78;5079178;28;19917;-66
2022/06/24 12:21:23;;;;;;;;;;;;;;;-144.47;53.32;53050.75;5089556;28;19919;-68
2022/06/24 12:23:48;;;;;;;;;;;;;;;-144.47;53.51;53070.59;5084415;28;19987;-66
2022/06/24 12:26:18;;;;;;;;;;;;;;;-144.47;52.91;53030.88;5089706;28;19908;-68
2022/06/24 12:28:44;;;;;;;;;;;;;;;-144.47;51.97;53044.78;5066036;28;19913;-67
2022/06/24 12:31:11;;;;;;;;;;;;;;;-144.47;52.32;53066.63;5047758;28;19985;-65
2022/06/24 12:33:56;;;;;;;;;;;;;;;-144.47;53.67;53032.88;5061755;28;20300;-66
2022/06/24 12:36:22;;;;;;;;;;;;;;;-144.47;52.17;52985.19;5048568;28;19974;-65